createdAt,value
2023-03-06T00:05:02.292Z,72.5
2023-03-06T00:15:08.520Z,73
2023-03-06T00:25:14.886Z,72
2023-03-06T00:35:21.104Z,72
2023-03-06T00:45:27.304Z,72.5
2023-03-06T00:55:33.597Z,72.5
2023-03-06T01:05:40.056Z,72.5
2023-03-06T01:15:46.280Z,72.5
2023-03-06T01:25:52.550Z,72.5
2023-03-06T01:35:58.768Z,72.5
2023-03-06T01:46:05.040Z,73.5
2023-03-06T01:56:11.369Z,75
2023-03-06T02:06:17.561Z,76
2023-03-06T02:16:23.833Z,78
2023-03-06T02:26:30.095Z,78.5
2023-03-06T02:36:36.386Z,75
2023-03-06T02:46:42.621Z,77.5
2023-03-06T02:56:48.904Z,77
2023-03-06T03:06:55.168Z,78
2023-03-06T03:17:01.409Z,77.5
2023-03-06T03:27:07.731Z,79
2023-03-06T03:37:14.153Z,79.5
2023-03-06T03:47:20.230Z,80
2023-03-06T03:57:26.498Z,81
2023-03-06T04:07:32.876Z,79.5
2023-03-06T04:17:39.025Z,81
2023-03-06T04:27:45.267Z,81
2023-03-06T04:37:51.539Z,81
2023-03-06T04:47:57.857Z,79.5
2023-03-06T04:58:04.101Z,81.5
2023-03-06T05:08:10.329Z,81
2023-03-06T05:18:16.598Z,81.5
2023-03-06T05:28:22.866Z,82
2023-03-06T05:38:29.215Z,81.5
2023-03-06T05:48:35.415Z,81.5
2023-03-06T05:58:41.662Z,82
2023-03-06T06:08:47.821Z,81.5
2023-03-06T06:18:54.095Z,81.5
2023-03-06T06:29:00.236Z,81
2023-03-06T06:39:06.470Z,80
2023-03-06T06:49:12.843Z,79
2023-03-06T06:59:19.028Z,78
2023-03-06T07:09:25.315Z,79
2023-03-06T07:19:31.576Z,78
2023-03-06T07:29:37.764Z,77.5
2023-03-06T07:39:43.956Z,77
2023-03-06T07:49:50.152Z,75
2023-03-06T07:59:56.417Z,74.5
2023-03-06T08:10:02.600Z,72
2023-03-06T08:20:08.757Z,71.5
2023-03-06T08:30:15.011Z,67.5
2023-03-06T08:40:21.253Z,68
2023-03-06T08:50:27.371Z,67
2023-03-06T09:00:33.604Z,71
2023-03-06T09:10:39.693Z,70
2023-03-06T09:20:45.932Z,68.5
2023-03-06T09:30:52.157Z,67
2023-03-06T09:40:58.470Z,67
2023-03-06T09:51:04.600Z,73
2023-03-06T10:01:10.889Z,72
2023-03-06T10:11:17.086Z,68
2023-03-06T10:21:23.173Z,67
2023-03-06T10:31:29.574Z,63
2023-03-06T10:41:35.700Z,63
2023-03-06T10:51:41.992Z,61.5
2023-03-06T11:01:48.078Z,61
2023-03-06T11:11:54.310Z,55
2023-03-06T11:22:00.455Z,63
2023-03-06T11:32:06.659Z,58.5
2023-03-06T11:42:12.954Z,61
2023-03-06T11:52:19.221Z,60.5
2023-03-06T12:02:25.300Z,55.5
2023-03-06T12:12:31.541Z,55.5
2023-03-06T12:22:37.739Z,54
2023-03-06T12:32:43.967Z,49.5
2023-03-06T12:52:56.542Z,54.5
2023-03-06T13:03:02.578Z,54.5
2023-03-06T13:13:08.873Z,57.5
2023-03-06T13:23:14.991Z,57.5
2023-03-06T13:33:21.213Z,59.5
2023-03-06T13:43:27.617Z,64
2023-03-06T13:53:33.807Z,69
2023-03-06T14:03:39.971Z,69.5
2023-03-06T14:13:46.259Z,67
2023-03-06T14:23:52.375Z,62.5
2023-03-06T14:33:58.728Z,63
2023-03-06T14:44:05.111Z,63
2023-03-06T14:54:11.366Z,59.5
2023-03-06T15:04:17.537Z,55
2023-03-06T15:14:23.781Z,57
2023-03-06T15:24:30.006Z,56.5
2023-03-06T15:34:36.358Z,57
2023-03-06T15:44:42.570Z,56.5
2023-03-06T15:54:48.779Z,57.5
2023-03-06T16:04:55.233Z,58
2023-03-06T16:15:01.442Z,58.5
2023-03-06T16:25:07.580Z,60.5
2023-03-06T16:35:13.997Z,59.5
2023-03-06T16:45:20.243Z,59.5
2023-03-06T16:55:26.455Z,60
2023-03-06T17:05:31.919Z,62
2023-03-06T17:15:38.235Z,61
2023-03-06T17:25:44.470Z,61
2023-03-06T17:35:50.736Z,62.5
2023-03-06T17:45:57.031Z,64
2023-03-06T17:56:03.272Z,65
2023-03-06T18:06:09.520Z,65.5
2023-03-06T18:16:15.784Z,64.5
2023-03-06T18:26:22.060Z,65
2023-03-06T18:36:28.485Z,65
2023-03-06T18:46:34.600Z,65
2023-03-06T18:56:40.892Z,65
2023-03-06T19:06:47.082Z,65.5
2023-03-06T19:16:53.378Z,66
2023-03-06T19:26:59.599Z,66.5
2023-03-06T19:37:05.872Z,66.5
2023-03-06T19:47:12.150Z,67.5
2023-03-06T19:57:18.415Z,69
2023-03-06T20:07:24.741Z,69.5
2023-03-06T20:17:30.913Z,70.5
2023-03-06T20:27:37.414Z,70.5
2023-03-06T20:37:43.712Z,71.5
2023-03-06T20:47:50.002Z,71.5
2023-03-06T20:57:56.176Z,72.5
2023-03-06T21:08:02.470Z,73.5
2023-03-06T21:18:08.715Z,75.5
2023-03-06T21:28:14.984Z,74.5
2023-03-06T21:38:21.324Z,76
2023-03-06T21:48:27.583Z,75.5
2023-03-06T21:58:33.866Z,76.5
2023-03-06T22:08:40.121Z,76.5
2023-03-06T22:18:46.332Z,77
2023-03-06T22:28:52.585Z,77
2023-03-06T22:38:58.788Z,76
2023-03-06T22:49:05.022Z,77.5
2023-03-06T22:59:11.253Z,77.5
2023-03-06T23:09:17.624Z,77
2023-03-06T23:19:23.679Z,77.5
2023-03-06T23:29:29.848Z,78
2023-03-06T23:39:36.072Z,78
2023-03-06T23:49:42.398Z,77.5
2023-03-06T23:59:48.515Z,78
